Time;durP1;ratioP1;P1;durP2;ratioP2;P2;SDS_P1;SDS_P2;PMS_P1;PMS_P2;Temp;Humidity;BMP_temperature;BMP_pressure;BME280_temperature;BME280_humidity;BME280_pressure;Samples;Min_cycle;Max_cycle;Signal;HPM_P1;HPM_P2
2022/06/01 00:02:26;;;;;;;25.02;19.95;;;10.20;99.90;;;;;;5073756;28;20029;-69
2022/06/01 00:04:52;;;;;;;25.80;21.35;;;10.30;99.90;;;;;;5074005;28;20070;-69
2022/06/01 00:07:19;;;;;;;25.10;21.42;;;10.20;99.90;;;;;;5074171;28;20029;-69
2022/06/01 00:09:44;;;;;;;27.00;21.55;;;10.20;99.90;;;;;;5074558;28;20120;-69
2022/06/01 00:12:11;;;;;;;28.27;23.02;;;10.20;99.90;;;;;;5074106;28;20457;-69
2022/06/01 00:14:36;;;;;;;30.27;23.85;;;10.20;99.90;;;;;;5073098;28;20391;-69
2022/06/01 00:17:02;;;;;;;30.25;24.10;;;10.20;99.90;;;;;;5074115;28;20040;-69
2022/06/01 00:19:28;;;;;;;30.10;24.33;;;10.20;99.90;;;;;;5072531;28;20147;-69
2022/06/01 00:22:24;;;;;;;27.30;21.95;;;10.20;99.90;;;;;;5073845;28;20020;-69
2022/06/01 00:24:40;;;;;;;24.92;20.08;;;10.20;99.90;;;;;;5073716;28;20021;-69
2022/06/01 00:27:06;;;;;;;24.65;19.10;;;10.20;99.90;;;;;;5073927;28;20027;-69
2022/06/01 00:29:32;;;;;;;22.83;19.17;;;10.20;99.90;;;;;;5073837;28;20109;-69
2022/06/01 00:31:58;;;;;;;22.75;18.77;;;10.20;99.90;;;;;;5072432;28;20510;-69
2022/06/01 00:34:24;;;;;;;25.15;19.27;;;10.20;99.90;;;;;;5073680;28;20036;-68
2022/06/01 00:36:50;;;;;;;20.10;17.65;;;10.20;99.90;;;;;;5072484;28;20107;-68
2022/06/01 00:39:15;;;;;;;22.17;17.08;;;10.20;99.90;;;;;;5055653;28;20511;-69
2022/06/01 00:41:41;;;;;;;21.30;17.42;;;10.20;99.90;;;;;;5073583;28;20107;-68
2022/06/01 00:44:07;;;;;;;21.38;16.70;;;10.20;99.90;;;;;;5072354;28;20047;-68
2022/06/01 00:46:33;;;;;;;20.50;15.70;;;10.10;99.90;;;;;;5073549;28;20029;-69
2022/06/01 00:49:08;;;;;;;17.42;14.85;;;10.10;99.90;;;;;;5072217;28;20026;-69
2022/06/01 00:51:33;;;;;;;17.63;14.20;;;10.00;99.90;;;;;;5072319;28;20487;-68
2022/06/01 00:53:59;;;;;;;17.25;14.15;;;10.00;99.90;;;;;;5073348;28;20020;-69
2022/06/01 00:56:32;;;;;;;16.15;13.35;;;10.00;99.90;;;;;;5072065;28;20074;-69
2022/06/01 00:59:03;;;;;;;18.08;13.32;;;10.00;99.90;;;;;;5073249;28;20032;-68
2022/06/01 01:01:29;;;;;;;14.05;12.55;;;10.00;99.90;;;;;;5073318;28;20073;-69
2022/06/01 01:03:57;;;;;;;15.95;13.40;;;10.00;99.90;;;;;;5072140;28;20482;-68
2022/06/01 01:06:33;;;;;;;14.98;13.38;;;9.90;99.90;;;;;;5072096;28;20051;-69
2022/06/01 01:08:59;;;;;;;15.15;12.50;;;9.90;99.90;;;;;;5073217;28;20029;-68
2022/06/01 01:11:36;;;;;;;16.27;14.40;;;9.90;99.90;;;;;;5073202;28;20020;-69
2022/06/01 01:14:06;;;;;;;17.08;14.18;;;9.90;99.90;;;;;;5072925;28;20025;-68
2022/06/01 01:16:33;;;;;;;18.23;15.77;;;9.90;99.90;;;;;;5073138;28;20024;-69
2022/06/01 01:18:59;;;;;;;26.38;19.23;;;9.90;99.90;;;;;;5071700;28;20388;-68
2022/06/01 01:21:51;;;;;;;25.00;21.02;;;10.00;99.90;;;;;;5073137;28;20028;-69
2022/06/01 01:24:47;;;;;;;26.03;20.27;;;10.00;99.90;;;;;;5073042;28;20024;-68
2022/06/01 01:27:12;;;;;;;28.95;20.38;;;10.00;99.90;;;;;;5071800;28;20035;-69
2022/06/01 01:29:40;;;;;;;22.23;18.60;;;10.00;99.90;;;;;;5073096;28;20024;-69
2022/06/01 01:32:08;;;;;;;24.50;16.90;;;10.00;99.90;;;;;;5073120;28;20032;-68
2022/06/01 01:34:35;;;;;;;19.90;15.98;;;10.00;99.90;;;;;;5071739;28;20036;-69
2022/06/01 01:37:05;;;;;;;21.45;15.07;;;10.10;99.90;;;;;;5073013;28;20032;-68
2022/06/01 01:39:32;;;;;;;20.98;15.43;;;10.00;99.90;;;;;;5072853;28;20033;-69
2022/06/01 01:41:58;;;;;;;17.42;14.85;;;10.10;99.90;;;;;;5072907;28;20078;-68
2022/06/01 01:44:32;;;;;;;18.30;15.35;;;10.10;99.90;;;;;;5071759;28;20024;-68
2022/06/01 01:46:58;;;;;;;21.00;15.63;;;10.10;99.90;;;;;;5073125;28;20443;-68
2022/06/01 01:49:27;;;;;;;18.25;15.23;;;10.10;99.90;;;;;;5072903;28;20601;-68
2022/06/01 01:51:58;;;;;;;23.45;17.15;;;10.10;99.90;;;;;;5071645;28;20032;-68
2022/06/01 01:54:46;;;;;;;19.88;17.67;;;10.00;99.90;;;;;;5073040;28;20395;-69
2022/06/01 01:57:22;;;;;;;25.30;19.55;;;10.00;99.90;;;;;;5072571;28;20037;-68
2022/06/01 02:00:14;;;;;;;24.38;20.33;;;10.00;99.90;;;;;;5072658;28;20166;-69
2022/06/01 02:02:52;;;;;;;27.60;20.15;;;9.90;99.90;;;;;;5072625;28;20021;-68
2022/06/01 02:06:14;;;;;;;23.15;19.90;;;9.90;99.90;;;;;;5072730;28;20032;-68
2022/06/01 02:08:38;;;;;;;23.10;17.52;;;9.80;99.90;;;;;;5072451;28;20441;-69
2022/06/01 02:14:22;;;;;;;19.88;16.35;;;9.50;99.90;;;;;;5071368;28;20576;-68
2022/06/01 02:16:55;;;;;;;20.80;17.02;;;9.40;99.90;;;;;;5072590;28;20024;-68
2022/06/01 02:19:24;;;;;;;24.43;18.90;;;9.30;99.90;;;;;;5071026;28;20044;-68
2022/06/01 02:21:51;;;;;;;21.60;18.20;;;9.30;99.90;;;;;;5072576;28;20267;-68
2022/06/01 02:24:18;;;;;;;22.48;18.88;;;9.20;99.90;;;;;;5072537;28;20021;-68
2022/06/01 02:26:46;;;;;;;21.73;18.40;;;9.20;99.90;;;;;;5072679;28;20111;-68
2022/06/01 02:29:16;;;;;;;20.15;17.17;;;9.10;99.90;;;;;;5076111;28;20025;-68
2022/06/01 02:31:43;;;;;;;24.20;19.77;;;9.10;99.90;;;;;;5074951;28;20082;-68
2022/06/01 02:34:09;;;;;;;24.00;19.23;;;9.00;99.90;;;;;;5074918;28;20115;-68
2022/06/01 02:36:38;;;;;;;26.25;20.08;;;9.00;99.90;;;;;;5074720;28;20029;-68
2022/06/01 02:39:07;;;;;;;27.27;21.65;;;9.00;99.90;;;;;;5075945;28;20035;-69
2022/06/01 02:44:19;;;;;;;32.10;23.92;;;9.00;99.90;;;;;;5074661;28;20017;-68
2022/06/01 02:46:45;;;;;;;31.58;24.55;;;9.10;99.90;;;;;;5075761;28;20017;-69
2022/06/01 02:49:11;;;;;;;27.27;22.20;;;9.20;99.90;;;;;;5074425;28;20032;-69
2022/06/01 02:51:36;;;;;;;27.23;22.33;;;9.20;99.90;;;;;;5075746;28;20177;-69
2022/06/01 02:54:02;;;;;;;26.55;21.75;;;9.20;99.90;;;;;;5074452;28;20111;-69
2022/06/01 02:56:28;;;;;;;38.63;25.17;;;9.10;99.90;;;;;;5075545;28;20102;-69
2022/06/01 02:58:54;;;;;;;31.27;24.55;;;9.10;99.90;;;;;;5074203;28;20078;-68
2022/06/01 03:01:20;;;;;;;33.65;25.73;;;9.20;99.90;;;;;;5075511;28;20074;-68
2022/06/01 03:03:47;;;;;;;35.70;26.35;;;9.10;99.90;;;;;;5074231;28;20021;-68
2022/06/01 03:06:12;;;;;;;35.10;26.67;;;9.20;99.90;;;;;;5074325;28;20076;-69
2022/06/01 03:08:38;;;;;;;37.20;27.30;;;9.20;99.90;;;;;;5075466;28;20040;-68
2022/06/01 03:11:03;;;;;;;31.83;25.33;;;9.10;99.90;;;;;;5075299;28;20032;-69
2022/06/01 03:13:30;;;;;;;35.65;25.67;;;9.10;99.90;;;;;;5074101;28;20029;-69
2022/06/01 03:15:55;;;;;;;30.52;24.67;;;9.00;99.90;;;;;;5075531;28;20025;-69
2022/06/01 03:18:21;;;;;;;30.23;22.65;;;8.90;99.90;;;;;;5075042;28;20099;-69
2022/06/01 03:20:47;;;;;;;26.23;21.40;;;8.90;99.90;;;;;;5073768;28;20028;-69
2022/06/01 03:23:12;;;;;;;25.73;20.63;;;8.80;99.90;;;;;;5075149;28;20100;-69
2022/06/01 03:25:38;;;;;;;25.88;20.77;;;8.70;99.90;;;;;;5075149;28;20031;-69
2022/06/01 03:28:06;;;;;;;28.10;21.77;;;8.70;99.90;;;;;;5073832;28;20044;-68
2022/06/01 03:30:32;;;;;;;25.80;21.20;;;8.60;99.90;;;;;;5074923;28;20020;-68
2022/06/01 03:32:58;;;;;;;24.90;19.73;;;8.60;99.90;;;;;;5056994;28;20390;-69
2022/06/01 03:35:27;;;;;;;25.33;20.40;;;8.60;99.90;;;;;;5073532;28;20025;-69
2022/06/01 03:37:53;;;;;;;24.17;20.95;;;8.60;99.90;;;;;;5074847;28;20361;-69
2022/06/01 03:40:21;;;;;;;25.50;20.65;;;8.60;99.90;;;;;;5074752;28;20020;-68
2022/06/01 03:42:46;;;;;;;26.58;20.45;;;8.60;99.90;;;;;;5073381;28;20024;-68
2022/06/01 03:47:58;;;;;;;32.88;25.48;;;8.70;99.90;;;;;;5074417;28;20035;-68
2022/06/01 03:50:26;;;;;;;34.67;26.35;;;8.80;99.90;;;;;;5073609;28;20028;-69
2022/06/01 03:52:52;;;;;;;35.20;27.08;;;8.90;99.90;;;;;;5074484;28;20025;-69
2022/06/01 03:55:19;;;;;;;37.65;29.10;;;9.00;99.90;;;;;;5074474;28;20032;-69
2022/06/01 03:57:44;;;;;;;36.20;26.88;;;9.20;99.90;;;;;;5073298;28;20020;-68
2022/06/01 04:00:14;;;;;;;33.13;26.00;;;9.20;99.90;;;;;;5074307;28;20040;-69
2022/06/01 04:02:40;;;;;;;34.10;26.52;;;9.40;99.90;;;;;;5073127;28;20510;-69
2022/06/01 04:05:07;;;;;;;31.75;25.20;;;9.50;99.90;;;;;;5073110;28;20082;-69
2022/06/01 04:07:33;;;;;;;31.85;24.50;;;9.60;99.90;;;;;;5074220;28;20387;-68
2022/06/01 04:09:58;;;;;;;28.58;24.30;;;9.70;99.90;;;;;;5072930;28;20029;-69
2022/06/01 04:12:24;;;;;;;30.92;24.00;;;9.80;99.90;;;;;;5056251;28;20021;-69
2022/06/01 04:14:49;;;;;;;27.42;22.00;;;9.80;99.90;;;;;;5072766;28;20395;-69
2022/06/01 04:17:15;;;;;;;26.85;20.88;;;10.00;99.90;;;;;;5073979;28;20056;-68
2022/06/01 04:19:41;;;;;;;24.75;20.75;;;10.00;99.90;;;;;;5073747;28;20135;-70
2022/06/01 04:22:07;;;;;;;23.25;20.15;;;10.10;99.90;;;;;;5074062;28;20394;-69
2022/06/01 04:24:35;;;;;;;20.90;17.98;;;10.10;99.90;;;;;;5072605;28;20376;-68
2022/06/01 04:27:01;;;;;;;23.20;18.50;;;10.10;99.90;;;;;;5074073;28;20025;-69
2022/06/01 04:29:26;;;;;;;21.55;17.23;;;10.10;99.90;;;;;;5073799;28;20028;-69
2022/06/01 04:32:01;;;;;;;19.13;17.13;;;10.30;99.90;;;;;;5073928;28;20037;-69
2022/06/01 04:34:26;;;;;;;19.38;17.23;;;10.60;99.90;;;;;;5073703;28;20025;-69
2022/06/01 04:36:54;;;;;;;18.83;16.83;;;11.00;99.90;;;;;;5055719;28;20035;-69
2022/06/01 04:39:20;;;;;;;18.70;15.95;;;11.70;99.90;;;;;;5073505;28;20062;-68
2022/06/01 04:41:46;;;;;;;14.38;12.98;;;12.60;99.90;;;;;;5073492;28;20118;-68
2022/06/01 04:44:11;;;;;;;16.08;12.88;;;13.10;99.90;;;;;;5073492;28;20028;-69
2022/06/01 04:46:37;;;;;;;16.08;14.30;;;12.60;99.90;;;;;;5072423;28;20082;-69
2022/06/01 04:49:03;;;;;;;21.80;17.15;;;12.00;99.90;;;;;;5071758;28;20067;-69
2022/06/01 04:51:29;;;;;;;20.63;17.17;;;11.50;99.90;;;;;;5073413;28;20140;-69
2022/06/01 04:53:54;;;;;;;21.10;17.95;;;11.30;99.90;;;;;;5073362;28;20025;-69
2022/06/01 04:56:20;;;;;;;20.52;18.30;;;11.20;99.90;;;;;;5072144;28;20035;-69
2022/06/01 04:58:45;;;;;;;21.13;17.67;;;11.20;99.90;;;;;;5073336;28;20391;-68
2022/06/01 05:01:11;;;;;;;24.60;18.33;;;11.30;99.90;;;;;;5073345;28;20034;-69
2022/06/01 05:03:36;;;;;;;22.98;17.80;;;11.30;99.90;;;;;;5073359;28;20108;-69
2022/06/01 05:06:02;;;;;;;22.02;17.98;;;11.50;99.90;;;;;;5071975;28;20115;-68
2022/06/01 05:08:28;;;;;;;19.92;15.32;;;11.50;99.90;;;;;;5072065;28;20028;-69
2022/06/01 05:10:54;;;;;;;18.73;14.00;;;12.20;99.90;;;;;;5073217;28;20047;-68
2022/06/01 05:13:20;;;;;;;17.00;13.70;;;12.80;99.90;;;;;;5072064;28;20032;-69
2022/06/01 05:15:50;;;;;;;14.38;12.65;;;13.10;99.90;;;;;;5073254;28;20028;-69
2022/06/01 05:18:16;;;;;;;13.02;11.60;;;13.70;99.90;;;;;;5073075;28;20513;-69
2022/06/01 05:20:42;;;;;;;14.93;11.48;;;14.40;99.90;;;;;;5073041;28;20024;-69
2022/06/01 05:23:08;;;;;;;16.00;11.75;;;14.40;99.90;;;;;;5073240;28;20389;-69
2022/06/01 05:25:34;;;;;;;11.98;10.60;;;14.90;99.90;;;;;;5071800;28;20027;-69
2022/06/01 05:28:00;;;;;;;15.23;12.73;;;15.00;99.90;;;;;;5073021;28;20489;-69
2022/06/01 05:30:25;;;;;;;17.05;12.30;;;14.30;99.90;;;;;;5071746;28;20025;-69
2022/06/01 05:32:51;;;;;;;14.98;11.77;;;14.70;99.90;;;;;;5072853;28;20032;-69
2022/06/01 05:35:16;;;;;;;13.52;11.57;;;14.90;99.90;;;;;;5071849;28;20086;-70
2022/06/01 05:37:42;;;;;;;13.60;11.13;;;15.60;99.90;;;;;;5071860;28;20021;-69
2022/06/01 05:40:08;;;;;;;13.48;12.07;;;16.00;99.90;;;;;;5071667;28;20478;-70
2022/06/01 05:42:34;;;;;;;17.80;11.52;;;16.20;99.90;;;;;;5073152;28;20057;-69
2022/06/01 05:44:59;;;;;;;13.43;12.00;;;16.30;99.90;;;;;;5071636;28;20017;-69
2022/06/01 05:47:25;;;;;;;15.18;13.10;;;16.20;99.90;;;;;;5071696;28;20429;-69
2022/06/01 05:49:50;;;;;;;14.50;12.50;;;15.90;99.90;;;;;;5072752;28;20033;-70
2022/06/01 05:52:19;;;;;;;18.85;14.63;;;15.70;99.90;;;;;;5054998;28;20111;-70
2022/06/01 05:54:45;;;;;;;16.48;13.65;;;15.90;99.90;;;;;;5072777;28;20615;-70
2022/06/01 05:57:11;;;;;;;15.63;13.65;;;16.00;99.90;;;;;;5072872;28;20527;-70
2022/06/01 05:59:36;;;;;;;15.68;13.68;;;16.10;99.90;;;;;;5072780;28;20108;-70
2022/06/01 06:02:02;;;;;;;22.05;15.57;;;16.10;99.90;;;;;;5077490;28;20402;-70
2022/06/01 06:04:28;;;;;;;17.77;15.85;;;16.10;99.90;;;;;;5098269;28;20035;-70
2022/06/01 06:06:53;;;;;;;19.80;15.57;;;16.10;99.90;;;;;;5083958;28;20103;-70
2022/06/01 06:09:24;;;;;;;20.17;16.35;;;16.30;99.90;;;;;;5111007;28;20032;-70
2022/06/01 06:11:51;;;;;;;17.55;14.90;;;16.10;99.90;;;;;;5096543;28;20099;-70
2022/06/01 06:14:16;;;;;;;16.77;14.98;;;16.30;99.90;;;;;;5096308;28;20482;-70
2022/06/01 06:16:43;;;;;;;18.70;14.40;;;17.30;99.90;;;;;;5096497;28;20028;-71
2022/06/01 06:19:09;;;;;;;18.10;14.68;;;18.20;99.90;;;;;;5078342;28;20502;-70
2022/06/01 06:21:35;;;;;;;21.50;15.20;;;18.00;99.90;;;;;;5095564;28;20031;-70
2022/06/01 06:24:06;;;;;;;18.30;14.52;;;17.60;99.90;;;;;;5095252;28;20024;-71
2022/06/01 06:26:32;;;;;;;19.25;14.68;;;17.60;99.90;;;;;;5096277;28;20081;-71
2022/06/01 06:29:01;;;;;;;17.00;15.18;;;18.30;99.90;;;;;;5096538;28;20398;-71
2022/06/01 06:31:26;;;;;;;18.48;14.70;;;17.80;99.90;;;;;;5096378;28;20048;-71
2022/06/01 06:33:52;;;;;;;19.55;15.68;;;18.30;99.90;;;;;;5096145;28;20036;-71
2022/06/01 06:36:17;;;;;;;19.08;16.20;;;18.00;99.90;;;;;;5094571;28;20032;-70
2022/06/01 06:38:43;;;;;;;20.98;16.75;;;17.30;99.90;;;;;;5094051;28;20023;-71
2022/06/01 06:41:10;;;;;;;17.52;15.70;;;17.50;99.90;;;;;;5093184;28;20024;-70
2022/06/01 06:43:37;;;;;;;20.90;16.23;;;17.50;99.90;;;;;;5056945;28;20032;-71
2022/06/01 06:46:08;;;;;;;20.60;16.20;;;18.60;99.90;;;;;;5094012;28;20043;-71
2022/06/01 06:48:34;;;;;;;17.45;15.65;;;18.60;99.90;;;;;;5095362;28;20016;-70
2022/06/01 06:51:00;;;;;;;21.70;16.92;;;18.40;99.90;;;;;;5094798;28;20035;-71
2022/06/01 06:53:27;;;;;;;18.27;16.38;;;18.50;99.90;;;;;;5094924;28;20069;-70
2022/06/01 06:55:53;;;;;;;23.90;18.95;;;18.30;99.90;;;;;;5094531;28;20366;-71
2022/06/01 06:58:19;;;;;;;22.27;19.67;;;17.90;99.90;;;;;;5092892;28;20161;-70
2022/06/01 07:00:44;;;;;;;24.48;21.90;;;17.60;99.90;;;;;;5091894;28;20409;-70
2022/06/01 07:03:10;;;;;;;25.25;20.73;;;17.20;99.90;;;;;;5079493;28;20032;-70
2022/06/01 07:08:22;;;;;;;23.10;19.80;;;18.30;99.90;;;;;;5093141;28;20024;-71
2022/06/01 07:10:48;;;;;;;21.45;19.13;;;17.80;99.90;;;;;;5092045;28;20043;-71
2022/06/01 07:13:13;;;;;;;22.55;20.13;;;17.70;99.90;;;;;;5087422;28;20507;-71
2022/06/01 07:15:39;;;;;;;22.67;20.13;;;18.80;99.90;;;;;;5072271;28;20024;-71
2022/06/01 07:18:05;;;;;;;24.63;21.90;;;19.60;99.90;;;;;;5068586;28;20032;-71
2022/06/01 07:20:32;;;;;;;23.38;20.10;;;19.20;99.90;;;;;;5091294;28;20517;-71
2022/06/01 07:22:58;;;;;;;23.75;21.23;;;19.50;99.90;;;;;;5091824;28;20111;-71
2022/06/01 07:25:25;;;;;;;25.33;19.77;;;19.30;99.90;;;;;;5093873;28;20486;-71
2022/06/01 07:27:50;;;;;;;21.73;19.10;;;18.90;99.90;;;;;;5088849;28;20028;-70
2022/06/01 07:30:16;;;;;;;24.02;19.27;;;18.70;99.90;;;;;;5092147;28;20077;-71
2022/06/01 07:32:44;;;;;;;22.80;20.05;;;17.80;99.90;;;;;;5089816;28;20478;-70
2022/06/01 07:35:10;;;;;;;21.10;18.80;;;18.00;99.90;;;;;;5094220;28;20440;-71
2022/06/01 07:43:07;;;;;;;22.70;17.10;;;19.50;99.90;;;;;;5088096;28;20031;-71
2022/06/01 07:45:36;;;;;;;20.35;15.85;;;18.70;99.90;;;;;;5093202;28;20136;-70
2022/06/01 07:48:04;;;;;;;18.55;16.45;;;17.90;99.90;;;;;;5093439;28;20482;-71
2022/06/01 07:50:29;;;;;;;22.50;17.58;;;17.80;99.90;;;;;;5092543;28;20458;-70
2022/06/01 07:52:55;;;;;;;20.27;18.05;;;17.30;99.90;;;;;;5084008;28;20031;-70
2022/06/01 07:55:20;;;;;;;23.80;18.73;;;17.50;99.90;;;;;;5075397;28;20013;-71
2022/06/01 07:57:46;;;;;;;25.23;18.88;;;17.00;99.90;;;;;;5090707;28;20398;-71
2022/06/01 08:00:12;;;;;;;23.27;19.38;;;16.40;99.90;;;;;;5094417;28;20028;-70
2022/06/01 08:02:38;;;;;;;29.08;21.15;;;16.00;99.90;;;;;;5090619;28;20016;-71
2022/06/01 08:05:05;;;;;;;27.23;19.77;;;15.80;99.90;;;;;;5091457;28;20085;-70
2022/06/01 08:07:31;;;;;;;28.65;20.58;;;15.50;99.90;;;;;;5091303;28;20024;-70
2022/06/01 08:09:56;;;;;;;27.88;21.83;;;15.40;99.90;;;;;;5074688;28;20073;-70
2022/06/01 08:15:08;;;;;;;25.90;19.17;;;16.00;99.90;;;;;;5092190;28;20045;-71
2022/06/01 08:17:34;;;;;;;24.25;18.25;;;17.20;99.90;;;;;;5076826;28;20081;-71
2022/06/01 08:19:59;;;;;;;22.17;16.42;;;18.10;99.90;;;;;;5085086;28;20398;-71
2022/06/01 08:22:25;;;;;;;23.65;13.65;;;19.50;99.90;;;;;;5090213;28;20077;-71
2022/06/01 08:24:50;;;;;;;20.13;15.32;;;19.30;99.90;;;;;;5086083;28;20417;-71
2022/06/01 08:27:16;;;;;;;15.40;12.00;;;19.00;99.90;;;;;;5092998;28;20363;-71
2022/06/01 08:29:42;;;;;;;16.15;13.15;;;19.00;99.90;;;;;;5075457;28;20398;-71
2022/06/01 08:32:08;;;;;;;17.25;13.45;;;19.00;99.90;;;;;;5093011;28;20035;-71
2022/06/01 08:34:35;;;;;;;17.92;13.15;;;17.80;99.90;;;;;;5072299;28;20104;-71
2022/06/01 08:37:00;;;;;;;16.30;14.60;;;17.50;99.90;;;;;;5088348;28;20161;-70
2022/06/01 08:39:26;;;;;;;19.85;17.33;;;16.90;99.90;;;;;;5092065;28;20107;-71
2022/06/01 08:41:53;;;;;;;19.42;17.08;;;16.20;99.90;;;;;;5092888;28;20394;-71
2022/06/01 08:44:37;;;;;;;23.48;17.98;;;16.60;99.90;;;;;;5079350;28;20108;-71
2022/06/01 08:47:09;;;;;;;26.58;17.88;;;16.40;99.90;;;;;;5091490;28;20048;-71
2022/06/01 08:49:36;;;;;;;22.00;18.27;;;16.10;99.90;;;;;;5091291;28;20470;-70
2022/06/01 08:52:02;;;;;;;25.13;18.55;;;15.70;99.90;;;;;;5090926;28;20020;-70
2022/06/01 08:54:28;;;;;;;21.17;17.23;;;15.50;99.90;;;;;;5092351;28;20073;-71
2022/06/01 08:56:59;;;;;;;22.13;15.07;;;16.80;99.90;;;;;;5092423;28;20036;-71
2022/06/01 09:00:05;;;;;;;10.43;9.38;;;18.00;99.90;;;;;;5087960;28;20028;-71
2022/06/01 09:02:55;;;;;;;12.45;7.63;;;18.00;99.90;;;;;;5076917;28;20025;-71
2022/06/01 09:05:34;;;;;;;10.07;8.40;;;18.60;99.90;;;;;;5092996;28;20099;-71
2022/06/01 09:08:24;;;;;;;11.35;8.73;;;19.00;99.90;;;;;;5075085;28;20481;-71
2022/06/01 09:11:16;;;;;;;8.73;7.90;;;18.40;99.90;;;;;;5092904;28;20055;-71
2022/06/01 09:14:08;;;;;;;12.65;8.90;;;17.40;99.90;;;;;;5091709;28;20024;-71
2022/06/01 09:16:45;;;;;;;8.82;6.72;;;16.90;99.90;;;;;;5072833;28;20489;-71
2022/06/01 09:19:20;;;;;;;8.10;7.20;;;17.00;99.90;;;;;;5080975;28;20490;-70
2022/06/01 09:22:38;;;;;;;10.38;6.63;;;16.40;99.90;;;;;;5085743;28;20474;-70
2022/06/01 09:24:54;;;;;;;9.40;7.32;;;15.90;99.90;;;;;;5092148;28;20032;-71
2022/06/01 09:27:39;;;;;;;9.65;5.45;;;16.20;99.90;;;;;;5087847;28;20116;-71
2022/06/01 09:33:20;;;;;;;8.35;5.82;;;16.90;99.90;;;;;;5068915;28;20403;-70
2022/06/01 09:35:59;;;;;;;9.30;7.22;;;16.60;99.90;;;;;;5052606;28;20395;-70
2022/06/01 09:41:31;;;;;;;11.38;7.43;;;17.00;99.90;;;;;;5067742;28;20426;-71
2022/06/01 09:44:09;;;;;;;7.57;5.63;;;18.40;99.90;;;;;;5046365;28;20029;-71
2022/06/01 09:46:53;;;;;;;6.65;5.68;;;18.90;99.90;;;;;;5046925;28;20021;-71
2022/06/01 09:49:32;;;;;;;10.38;7.22;;;19.50;99.90;;;;;;5048713;28;20441;-76
2022/06/01 09:52:08;;;;;;;10.45;8.23;;;19.30;99.90;;;;;;5046764;28;20124;-75
2022/06/01 09:54:37;;;;;;;11.73;6.28;;;19.80;99.90;;;;;;5052677;28;20039;-71
2022/06/01 09:57:28;;;;;;;10.65;7.45;;;19.80;99.90;;;;;;5049707;28;20037;-71
2022/06/01 10:08:23;;;;;;;7.75;6.88;;;17.30;99.90;;;;;;5045964;28;20083;-72
2022/06/01 10:10:59;;;;;;;5.85;5.10;;;17.30;99.90;;;;;;5055116;28;20086;-71
2022/06/01 10:13:36;;;;;;;4.68;3.85;;;17.00;99.90;;;;;;5049082;28;20025;-71
2022/06/01 10:16:14;;;;;;;5.10;4.60;;;16.60;99.90;;;;;;5052085;28;20037;-71
2022/06/01 10:18:42;;;;;;;5.72;4.75;;;16.60;99.90;;;;;;5052942;28;20481;-71
2022/06/01 10:21:12;;;;;;;6.93;4.95;;;16.30;99.90;;;;;;5046285;28;20112;-71
2022/06/01 10:24:07;;;;;;;7.70;4.63;;;16.50;99.90;;;;;;5060769;28;20021;-70
2022/06/01 10:26:37;;;;;;;6.93;3.85;;;16.50;99.90;;;;;;5051162;28;20029;-71
2022/06/01 10:29:08;;;;;;;5.72;4.00;;;16.70;99.90;;;;;;5048723;28;20543;-70
2022/06/01 10:31:39;;;;;;;4.10;3.58;;;16.80;99.90;;;;;;5050929;28;20033;-70
2022/06/01 10:34:10;;;;;;;5.90;3.30;;;17.10;99.90;;;;;;5047953;28;20036;-71
2022/06/01 10:37:14;;;;;;;6.18;4.00;;;17.40;99.90;;;;;;5047374;28;20444;-71
2022/06/01 10:39:52;;;;;;;6.78;4.65;;;17.30;99.90;;;;;;5048381;28;20041;-70
2022/06/01 10:45:15;;;;;;;6.28;4.68;;;17.10;99.90;;;;;;5085105;27;20715;-70
2022/06/01 10:48:00;;;;;;;5.03;4.53;;;16.80;99.90;;;;;;5089827;28;20036;-71
2022/06/01 10:50:36;;;;;;;6.40;4.60;;;16.80;99.90;;;;;;5088515;28;20498;-71
2022/06/01 10:53:14;;;;;;;8.25;4.80;;;16.70;99.90;;;;;;5086724;28;20547;-70
2022/06/01 10:55:43;;;;;;;7.55;5.18;;;17.00;99.90;;;;;;5079142;28;20074;-70
2022/06/01 10:58:18;;;;;;;6.28;4.50;;;17.20;99.90;;;;;;5086857;28;20020;-70
2022/06/01 11:00:52;;;;;;;6.68;4.65;;;17.40;99.90;;;;;;5087517;28;20028;-71
2022/06/01 11:03:58;;;;;;;6.07;4.85;;;17.00;99.90;;;;;;5084443;28;20035;-71
2022/06/01 11:06:51;;;;;;;5.70;4.78;;;16.70;99.90;;;;;;5084852;28;20027;-70
2022/06/01 11:09:30;;;;;;;4.63;4.20;;;16.50;99.90;;;;;;5083200;28;20379;-70
2022/06/01 11:12:10;;;;;;;5.72;4.50;;;16.30;99.90;;;;;;5078511;28;20024;-70
2022/06/01 11:15:06;;;;;;;6.28;4.88;;;16.20;99.90;;;;;;5085759;28;20047;-70
2022/06/01 11:17:42;;;;;;;6.95;4.72;;;16.40;99.90;;;;;;5085409;28;20111;-70
2022/06/01 11:20:30;;;;;;;7.95;3.95;;;17.00;99.90;;;;;;5083430;28;20071;-70
2022/06/01 11:26:00;;;;;;;8.32;5.78;;;17.20;99.90;;;;;;5065725;28;20404;-71
2022/06/01 11:28:52;;;;;;;5.88;4.95;;;17.40;99.90;;;;;;5044850;28;20379;-70
2022/06/01 11:31:20;;;;;;;9.63;5.05;;;18.10;99.90;;;;;;5061911;28;20502;-70
2022/06/01 11:34:02;;;;;;;5.30;4.80;;;18.20;99.90;;;;;;5046760;28;20424;-70
2022/06/01 11:36:50;;;;;;;7.38;5.18;;;18.30;99.90;;;;;;5044598;28;20526;-70
2022/06/01 11:39:42;;;;;;;5.43;4.75;;;18.50;99.90;;;;;;5041014;28;20025;-71
2022/06/01 11:42:15;;;;;;;9.05;4.88;;;18.80;99.90;;;;;;5042206;28;20040;-71
2022/06/01 11:44:49;;;;;;;6.05;4.13;;;18.90;99.90;;;;;;5042003;28;20442;-71
2022/06/01 11:47:18;;;;;;;7.07;4.07;;;19.30;99.90;;;;;;5049535;28;20035;-70
2022/06/01 11:50:03;;;;;;;5.78;3.70;;;19.10;99.90;;;;;;5029945;28;20025;-70
2022/06/01 11:52:33;;;;;;;3.95;3.55;;;18.80;99.90;;;;;;5043458;28;20132;-70
2022/06/01 11:58:04;;;;;;;4.30;3.15;;;19.50;99.90;;;;;;5107672;27;20437;-71
2022/06/01 12:00:51;;;;;;;7.28;3.70;;;18.80;98.50;;;;;;5084831;28;20448;-70
2022/06/01 12:06:15;;;;;;;3.85;3.20;;;19.00;98.80;;;;;;5089836;27;20401;-70
2022/06/01 12:08:43;;;;;;;;;;;19.10;97.90;;;;;;5075776;28;20032;-70
2022/06/01 12:11:33;;;;;;;7.32;3.28;;;19.00;98.50;;;;;;5100261;28;19919;-69
2022/06/01 12:13:59;;;;;;;4.25;3.42;;;19.20;98.10;;;;;;5079089;28;20510;-69
2022/06/01 12:16:27;;;;;;;3.15;2.85;;;19.30;96.80;;;;;;5086273;28;20034;-70
2022/06/01 12:19:09;;;;;;;6.13;3.83;;;19.80;97.60;;;;;;5088415;28;20078;-71
2022/06/01 12:21:54;;;;;;;7.80;3.47;;;19.80;98.10;;;;;;5102685;28;20093;-70
2022/06/01 12:30:20;;;;;;;7.03;4.10;;;19.50;96.30;;;;;;5088470;28;19908;-70
2022/06/01 12:33:07;;;;;;;7.25;4.80;;;19.20;93.80;;;;;;5086833;28;20126;-71
2022/06/01 12:35:43;;;;;;;4.40;3.60;;;18.90;93.90;;;;;;5069708;28;20025;-72
2022/06/01 12:38:31;;;;;;;8.15;3.40;;;18.90;94.90;;;;;;5083731;28;20036;-71
2022/06/01 12:41:04;;;;;;;6.45;3.22;;;19.20;93.80;;;;;;5078053;28;20036;-70
2022/06/01 12:43:30;;;;;;;3.83;3.42;;;19.30;94.10;;;;;;5083499;28;20032;-70
2022/06/01 12:45:56;;;;;;;3.65;2.75;;;19.90;95.00;;;;;;5069945;28;20044;-70
2022/06/01 12:48:23;;;;;;;4.70;3.13;;;19.70;94.00;;;;;;5088052;28;20032;-71
2022/06/01 12:50:57;;;;;;;4.50;2.70;;;19.50;92.70;;;;;;5086167;28;20148;-71
2022/06/01 12:53:26;;;;;;;6.35;3.63;;;19.90;93.00;;;;;;5080473;28;20498;-71
2022/06/01 12:56:16;;;;;;;6.57;4.18;;;20.40;93.10;;;;;;5085675;28;20471;-71
2022/06/01 12:58:44;;;;;;;4.38;3.20;;;20.60;94.30;;;;;;5081727;28;20577;-71
2022/06/01 13:01:15;;;;;;;5.63;3.03;;;20.00;91.60;;;;;;5083723;28;20035;-72
2022/06/01 13:03:45;;;;;;;3.28;2.95;;;20.40;92.10;;;;;;5082690;28;20505;-71
2022/06/01 13:06:15;;;;;;;3.60;2.90;;;20.40;92.50;;;;;;5084695;28;20032;-70
2022/06/01 13:08:43;;;;;;;4.63;3.17;;;21.00;92.00;;;;;;5087543;28;20108;-71
2022/06/01 13:11:27;;;;;;;5.00;2.88;;;20.80;90.70;;;;;;5051826;28;20495;-71
2022/06/01 13:13:52;;;;;;;4.80;3.25;;;20.60;88.70;;;;;;5068361;28;20033;-70
2022/06/01 13:16:20;;;;;;;5.93;2.60;;;20.40;88.10;;;;;;5069933;28;20033;-70
2022/06/01 13:18:46;;;;;;;5.55;2.72;;;20.20;91.10;;;;;;5064664;28;20150;-71
2022/06/01 13:21:32;;;;;;;6.80;4.43;;;19.40;91.80;;;;;;5070554;28;20486;-71
2022/06/01 13:24:01;;;;;;;7.72;5.72;;;18.30;98.60;;;;;;5069182;28;20042;-70
2022/06/01 13:26:45;;;;;;;7.10;6.40;;;17.40;99.90;;;;;;5075552;28;20458;-71
2022/06/01 13:29:20;;;;;;;8.40;7.43;;;16.40;99.90;;;;;;5073156;28;20055;-70
2022/06/01 13:31:51;;;;;;;9.25;8.35;;;15.50;99.90;;;;;;5075465;28;20027;-70
2022/06/01 13:34:22;;;;;;;8.82;7.88;;;15.00;99.90;;;;;;5072797;28;20443;-69
2022/06/01 13:36:48;;;;;;;9.98;8.30;;;14.40;99.90;;;;;;5073458;28;20098;-69
2022/06/01 13:39:14;;;;;;;13.35;10.45;;;14.30;99.90;;;;;;5054760;28;20060;-69
2022/06/01 13:41:53;;;;;;;13.07;10.05;;;13.90;99.90;;;;;;5075023;28;20102;-69
2022/06/01 13:44:47;;;;;;;13.32;10.55;;;13.50;99.90;;;;;;5056235;28;20510;-69
2022/06/01 13:47:13;;;;;;;12.13;9.70;;;13.20;99.90;;;;;;5082327;28;20032;-69